createdAt,value
2018-09-20T05:01:29.580Z,99.90
2018-09-20T05:03:57.233Z,99.90
2018-09-20T05:06:24.852Z,99.90
2018-09-20T05:08:52.501Z,99.90
2018-09-20T05:11:20.143Z,99.90
2018-09-20T05:13:47.771Z,99.90
2018-09-20T05:16:17.461Z,99.90
2018-09-20T05:18:45.154Z,99.90
2018-09-20T05:21:12.723Z,99.90
2018-09-20T05:23:40.539Z,99.90
2018-09-20T05:26:08.464Z,99.90
2018-09-20T05:28:37.385Z,99.90
2018-09-20T05:31:05.041Z,99.90
2018-09-20T05:33:32.755Z,99.90
2018-09-20T05:36:15.282Z,99.90
2018-09-20T05:38:42.975Z,99.90
2018-09-20T05:41:10.616Z,99.90
2018-09-20T05:43:50.131Z,99.90
2018-09-20T05:46:17.753Z,99.90
2018-09-20T05:48:45.414Z,99.90
2018-09-20T05:51:13.041Z,99.90
2018-09-20T05:53:40.664Z,99.90
2018-09-20T05:56:14.583Z,99.90
2018-09-20T05:58:42.212Z,99.90
2018-09-20T06:01:11.858Z,99.90
2018-09-20T06:03:39.497Z,99.90
2018-09-20T06:06:07.262Z,99.90
2018-09-20T06:08:35.208Z,99.90
2018-09-20T06:11:08.647Z,99.90
2018-09-20T06:13:36.767Z,99.90
2018-09-20T06:16:04.634Z,99.90
2018-09-20T06:18:32.318Z,99.90
2018-09-20T06:20:59.971Z,99.90
2018-09-20T06:23:27.763Z,99.90
2018-09-20T06:25:55.388Z,99.90
2018-09-20T06:28:23.080Z,99.90
2018-09-20T06:30:50.815Z,99.90
2018-09-20T06:33:18.751Z,99.90
2018-09-20T06:35:46.370Z,99.90
2018-09-20T06:38:14.373Z,99.90
2018-09-20T06:40:42.168Z,99.90
2018-09-20T06:43:18.102Z,99.90
2018-09-20T06:45:45.790Z,99.90
2018-09-20T06:48:24.299Z,99.90
2018-09-20T06:50:52.045Z,99.90
2018-09-20T06:53:19.789Z,99.90
2018-09-20T06:55:47.990Z,99.90
2018-09-20T06:58:15.829Z,99.90
2018-09-20T07:00:43.553Z,99.90
2018-09-20T07:03:11.211Z,99.90
2018-09-20T07:05:38.907Z,99.90
2018-09-20T07:08:06.609Z,99.90
2018-09-20T07:10:46.002Z,99.90
2018-09-20T07:13:13.660Z,99.90
2018-09-20T07:15:41.426Z,99.90
2018-09-20T07:18:09.447Z,99.90
2018-09-20T07:20:37.081Z,99.90
2018-09-20T07:23:04.974Z,99.90
2018-09-20T07:25:35.335Z,99.90
2018-09-20T07:28:04.168Z,99.90
2018-09-20T07:30:31.813Z,99.90
2018-09-20T07:32:59.483Z,99.90
2018-09-20T07:35:27.203Z,99.90
2018-09-20T07:37:54.882Z,99.90
2018-09-20T07:40:22.582Z,99.90
2018-09-20T07:42:50.307Z,99.70
2018-09-20T07:45:18.073Z,99.40
2018-09-20T07:47:45.760Z,98.90
2018-09-20T07:50:13.428Z,98.30
2018-09-20T07:52:41.155Z,97.70
2018-09-20T07:55:09.125Z,97.00
2018-09-20T07:57:36.762Z,96.70
2018-09-20T08:00:04.498Z,96.50
2018-09-20T08:02:32.164Z,96.40
2018-09-20T08:04:59.947Z,96.10
2018-09-20T08:07:28.562Z,95.30
2018-09-20T08:09:56.331Z,95.00
2018-09-20T08:12:24.113Z,94.70
2018-09-20T08:14:56.966Z,94.30
2018-09-20T08:17:24.810Z,93.80
2018-09-20T08:19:52.521Z,93.70
2018-09-20T08:22:20.312Z,93.30
2018-09-20T08:24:48.733Z,93.00
2018-09-20T08:27:16.486Z,92.40
2018-09-20T08:29:44.256Z,91.50
2018-09-20T08:32:12.015Z,91.20
2018-09-20T08:34:39.745Z,90.70
2018-09-20T08:37:12.946Z,90.60
2018-09-20T08:39:41.069Z,89.70
2018-09-20T08:42:08.759Z,89.70
2018-09-20T08:44:37.214Z,89.80
2018-09-20T08:47:06.228Z,88.60
2018-09-20T08:49:33.924Z,88.00
2018-09-20T08:52:02.218Z,89.30
2018-09-20T08:54:29.872Z,89.60
2018-09-20T08:56:57.898Z,88.70
2018-09-20T08:59:27.818Z,88.10
2018-09-20T09:01:55.924Z,86.00
2018-09-20T09:04:23.689Z,85.60
2018-09-20T09:06:51.718Z,86.70
2018-09-20T09:09:19.466Z,85.40
2018-09-20T10:01:37.713Z,70.50
2018-09-20T10:04:05.197Z,71.10
2018-09-20T10:06:32.618Z,69.80
2018-09-20T10:09:01.293Z,69.70
2018-09-20T10:11:28.877Z,68.60
2018-09-20T10:13:56.547Z,67.90
2018-09-20T10:16:24.220Z,68.00
2018-09-20T10:18:51.895Z,66.50
2018-09-20T10:21:19.619Z,66.30
2018-09-20T10:23:49.288Z,64.30
2018-09-20T10:26:18.042Z,63.10
2018-09-20T10:28:45.745Z,61.40
2018-09-20T10:31:13.384Z,60.80
2018-09-20T10:33:41.117Z,61.40
2018-09-20T10:36:08.847Z,61.10
2018-09-20T10:38:37.185Z,61.60
2018-09-20T10:41:05.072Z,60.50
2018-09-20T10:46:19.064Z,59.60
2018-09-20T10:48:46.758Z,59.60
2018-09-20T10:51:17.364Z,59.20
2018-09-20T10:53:45.220Z,59.20
2018-09-20T10:59:03.351Z,58.70
2018-09-20T11:01:31.049Z,57.50
2018-09-20T11:03:58.705Z,57.40
2018-09-20T11:08:59.609Z,58.00
2018-09-20T11:17:42.405Z,57.60
2018-09-20T11:20:10.676Z,57.10
2018-09-20T11:22:38.694Z,56.00
2018-09-20T11:25:07.608Z,55.90
2018-09-20T11:27:37.437Z,55.60
2018-09-20T11:30:10.408Z,54.70
2018-09-20T11:32:53.950Z,54.80
2018-09-20T11:35:22.582Z,54.20
2018-09-20T11:37:51.082Z,52.50
2018-09-20T11:40:19.397Z,52.60
2018-09-20T11:42:48.542Z,52.70
2018-09-20T11:45:25.560Z,53.00
2018-09-20T11:47:53.551Z,53.00
2018-09-20T11:50:24.420Z,53.10
2018-09-20T11:52:58.196Z,53.00
2018-09-20T11:55:33.485Z,52.50
2018-09-20T11:58:01.966Z,52.40
2018-09-20T12:03:28.486Z,49.40
2018-09-20T12:06:04.540Z,49.50
2018-09-20T12:08:38.324Z,49.10
2018-09-20T12:11:06.657Z,49.30
2018-09-20T12:13:35.242Z,47.60
2018-09-20T12:16:04.306Z,46.30
2018-09-20T12:18:31.977Z,47.70
2018-09-20T12:20:59.665Z,48.00
2018-09-20T12:23:28.775Z,47.80
2018-09-20T12:25:57.390Z,49.20
2018-09-20T12:28:26.285Z,50.50
2018-09-20T12:31:06.599Z,47.50
2018-09-20T12:33:36.180Z,47.40
2018-09-20T12:36:04.144Z,48.80
2018-09-20T12:38:31.821Z,47.40
2018-09-20T12:40:59.781Z,47.90
2018-09-20T12:43:30.100Z,48.80
2018-09-20T12:45:57.898Z,49.30
2018-09-20T12:48:25.663Z,47.60
2018-09-20T12:50:53.585Z,48.00
2018-09-20T12:53:22.436Z,47.30
2018-09-20T12:56:00.385Z,46.40
2018-09-20T12:58:33.818Z,46.40
2018-09-20T13:01:09.130Z,46.40
2018-09-20T13:03:40.740Z,46.10
2018-09-20T13:06:12.923Z,45.80
2018-09-20T13:08:40.759Z,46.60
2018-09-20T13:11:08.561Z,47.40
2018-09-20T13:13:38.366Z,47.00
2018-09-20T13:16:06.289Z,46.20
2018-09-20T13:18:35.031Z,45.60
2018-09-20T13:21:02.873Z,45.80
2018-09-20T13:23:30.926Z,45.40
2018-09-20T13:26:17.429Z,46.10
2018-09-20T13:28:52.373Z,46.20
2018-09-20T13:31:37.427Z,46.30
2018-09-20T13:34:15.580Z,46.10
2018-09-20T13:36:46.092Z,46.50
2018-09-20T13:39:20.790Z,47.10
2018-09-20T13:41:50.646Z,46.80
2018-09-20T13:44:38.554Z,45.90
2018-09-20T13:47:08.331Z,45.70
2018-09-20T13:49:36.319Z,45.00
2018-09-20T13:52:17.346Z,43.40
2018-09-20T13:54:45.150Z,42.80
2018-09-20T13:57:12.866Z,43.40
2018-09-20T13:59:41.846Z,44.20
2018-09-20T14:02:14.756Z,44.50
2018-09-20T14:04:42.650Z,44.30
2018-09-20T14:07:10.827Z,43.60
2018-09-20T14:09:39.914Z,43.70
2018-09-20T14:12:10.336Z,43.10
2018-09-20T14:14:41.498Z,42.90
2018-09-20T14:17:09.703Z,43.80
2018-09-20T14:19:38.710Z,43.70
2018-09-20T14:22:08.069Z,43.70
2018-09-20T14:24:55.100Z,44.20
2018-09-20T14:30:06.548Z,43.80
2018-09-20T14:32:34.843Z,42.60
2018-09-20T14:35:04.539Z,43.40
2018-09-20T14:37:35.410Z,43.60
2018-09-20T14:40:03.283Z,44.50
2018-09-20T14:42:31.305Z,45.80
2018-09-20T14:44:59.206Z,46.50
2018-09-20T14:47:30.056Z,46.20
2018-09-20T14:49:58.646Z,45.90
2018-09-20T14:52:28.151Z,45.10
2018-09-20T14:54:58.850Z,45.40
2018-09-20T14:57:29.162Z,45.30
2018-09-20T15:00:12.768Z,46.00
2018-09-20T15:02:40.509Z,45.90
2018-09-20T15:05:08.488Z,45.90
2018-09-20T15:07:36.219Z,45.40
2018-09-20T15:10:15.803Z,44.50
2018-09-20T16:11:34.795Z,45.90
2018-09-20T16:14:11.881Z,46.30
2018-09-20T16:16:39.621Z,46.20
2018-09-20T16:19:07.302Z,46.40
2018-09-20T16:21:35.000Z,46.60
2018-09-20T16:24:02.684Z,47.10
2018-09-20T16:26:30.293Z,46.60
2018-09-20T16:29:02.865Z,46.70
2018-09-20T16:35:50.871Z,47.10
2018-09-20T16:38:23.167Z,46.80
2018-09-20T16:40:52.033Z,47.60
2018-09-20T16:43:19.665Z,47.60
2018-09-20T16:45:47.300Z,47.90
2018-09-20T16:48:14.948Z,47.80
2018-09-20T16:50:42.708Z,48.40
2018-09-20T16:53:10.481Z,48.60
2018-09-20T16:55:38.233Z,49.20
2018-09-20T16:58:05.873Z,48.50
2018-09-20T17:00:33.556Z,49.10
2018-09-20T17:03:06.531Z,49.20
2018-09-20T17:05:34.295Z,49.00
2018-09-20T17:08:01.988Z,49.00
2018-09-20T17:10:29.730Z,49.80
2018-09-20T17:12:57.449Z,50.10
2018-09-20T17:15:25.095Z,49.80
2018-09-20T17:17:52.668Z,50.30
2018-09-20T17:20:20.305Z,50.60
2018-09-20T17:22:47.888Z,51.10
2018-09-20T17:25:15.609Z,51.20
2018-09-20T17:27:43.180Z,51.30
2018-09-20T17:30:10.884Z,51.20
2018-09-20T17:32:38.444Z,51.90
2018-09-20T17:35:06.270Z,52.50
2018-09-20T17:37:34.389Z,52.90
2018-09-20T17:40:02.344Z,53.70
2018-09-20T17:42:30.420Z,54.30
2018-09-20T17:44:58.387Z,54.70
2018-09-20T17:47:26.350Z,54.90
2018-09-20T17:49:59.734Z,55.60
2018-09-20T17:52:35.456Z,56.00
2018-09-20T17:55:10.118Z,56.90
2018-09-20T17:57:41.460Z,57.30
2018-09-20T18:00:59.436Z,57.70
2018-09-20T18:09:01.570Z,57.70
2018-09-20T18:11:30.595Z,58.00
2018-09-20T18:14:25.542Z,58.30
2018-09-20T18:16:53.636Z,58.60
2018-09-20T18:19:23.162Z,59.20
2018-09-20T18:21:51.398Z,59.60
2018-09-20T18:24:19.920Z,60.70
2018-09-20T18:26:48.200Z,60.50
2018-09-20T18:29:16.324Z,61.70
2018-09-20T18:31:54.319Z,60.90
2018-09-20T18:34:26.472Z,61.00
2018-09-20T18:36:55.660Z,62.10
2018-09-20T18:39:24.241Z,61.70
2018-09-20T18:41:54.099Z,62.40
2018-09-20T18:45:35.525Z,62.60
2018-09-20T18:48:03.303Z,63.30
2018-09-20T18:50:31.369Z,63.70
2018-09-20T18:52:59.107Z,63.90
2018-09-20T18:55:27.017Z,63.80
2018-09-20T18:57:54.834Z,64.20
2018-09-20T19:00:22.583Z,64.50
2018-09-20T19:02:50.438Z,64.90
2018-09-20T19:05:18.247Z,65.20
2018-09-20T19:07:50.151Z,65.30
2018-09-20T19:10:54.716Z,65.60
2018-09-20T19:13:22.464Z,65.90
2018-09-20T19:15:50.159Z,65.70
2018-09-20T19:18:19.060Z,64.80
2018-09-20T19:20:46.854Z,64.90
2018-09-20T19:23:14.673Z,65.10
2018-09-20T19:25:46.646Z,65.30
2018-09-20T19:28:14.429Z,65.60
2018-09-20T19:30:49.678Z,65.70
2018-09-20T19:33:17.389Z,65.90
2018-09-20T19:35:45.091Z,66.20
2018-09-20T19:38:12.893Z,66.50
2018-09-20T19:40:41.010Z,66.70
2018-09-20T19:43:08.805Z,66.70
2018-09-20T19:45:36.427Z,67.10
2018-09-20T19:48:04.228Z,67.40
2018-09-20T19:50:31.927Z,68.10
2018-09-20T19:52:59.594Z,68.30
2018-09-20T19:55:27.278Z,68.60
2018-09-20T19:57:57.338Z,68.70
2018-09-20T20:00:26.043Z,69.20
2018-09-20T20:02:53.722Z,69.90
2018-09-20T20:05:21.467Z,70.50
2018-09-20T20:07:53.469Z,70.80
2018-09-20T20:10:21.139Z,71.40
2018-09-20T20:12:48.759Z,71.70
2018-09-20T20:15:16.418Z,72.00
2018-09-20T20:17:44.090Z,71.90
2018-09-20T20:20:12.776Z,72.20
2018-09-20T20:22:41.039Z,72.30
2018-09-20T20:25:08.817Z,73.80
2018-09-20T20:27:36.473Z,73.10
2018-09-20T20:30:04.069Z,73.50
2018-09-20T20:32:31.934Z,74.00
2018-09-20T20:34:59.489Z,74.10
2018-09-20T20:37:27.055Z,74.70
2018-09-20T20:39:54.654Z,74.90
2018-09-20T20:42:22.253Z,75.30
2018-09-20T20:44:49.845Z,75.60
2018-09-20T20:47:17.381Z,76.90
2018-09-20T20:49:45.052Z,77.10
2018-09-20T20:52:12.673Z,76.70
2018-09-20T20:54:40.479Z,76.60
2018-09-20T20:57:08.078Z,77.50
2018-09-20T20:59:35.754Z,78.00
2018-09-20T21:02:03.374Z,77.80
2018-09-20T21:04:30.993Z,78.10
2018-09-20T21:06:58.618Z,78.90
2018-09-20T21:09:26.257Z,79.30
2018-09-20T21:11:53.863Z,79.70
2018-09-20T21:14:21.494Z,80.20
2018-09-20T21:16:49.154Z,80.20
2018-09-20T21:19:16.763Z,80.50
2018-09-20T21:21:44.379Z,80.80
2018-09-20T21:24:11.989Z,81.70
2018-09-20T21:26:39.600Z,82.00
2018-09-20T21:29:07.223Z,82.60
2018-09-20T21:31:34.799Z,82.70
2018-09-20T21:34:02.421Z,83.40
2018-09-20T21:36:30.026Z,83.90
2018-09-20T21:38:57.606Z,84.30
2018-09-20T21:41:25.177Z,85.10
2018-09-20T21:43:52.966Z,85.30
2018-09-20T21:46:20.528Z,85.60
2018-09-20T21:48:48.123Z,86.30
2018-09-20T21:51:15.766Z,86.90
2018-09-20T21:53:43.334Z,87.30
2018-09-20T21:56:10.969Z,87.60
2018-09-20T21:58:38.585Z,88.10
2018-09-20T22:01:06.134Z,88.40
2018-09-20T22:03:33.837Z,88.70
2018-09-20T22:06:01.458Z,88.60
2018-09-20T22:08:29.066Z,88.70
2018-09-20T22:10:56.657Z,89.40
2018-09-20T22:13:24.259Z,89.70
2018-09-20T22:15:51.922Z,90.10
2018-09-20T22:18:19.503Z,90.30
2018-09-20T22:20:47.174Z,90.30
2018-09-20T22:23:14.733Z,90.70
2018-09-20T22:25:42.341Z,90.80
2018-09-20T22:28:09.882Z,91.10
2018-09-20T22:30:37.494Z,91.00
2018-09-20T22:33:05.118Z,91.50
2018-09-20T22:35:32.802Z,92.00
2018-09-20T22:38:00.402Z,92.10
2018-09-20T22:40:28.009Z,92.20
2018-09-20T22:42:55.625Z,92.50
2018-09-20T22:45:23.226Z,92.70
2018-09-20T22:47:50.835Z,92.80
2018-09-20T22:50:18.451Z,92.90
2018-09-20T22:52:46.049Z,93.00
2018-09-20T22:55:13.713Z,93.20
2018-09-20T22:57:41.319Z,93.40
2018-09-20T23:00:08.955Z,93.50
2018-09-20T23:02:36.634Z,93.70
2018-09-20T23:05:04.306Z,93.80
2018-09-20T23:07:32.205Z,93.90
2018-09-20T23:09:59.822Z,94.20
2018-09-20T23:12:30.728Z,94.30
2018-09-20T23:14:58.406Z,94.20
2018-09-20T23:17:26.043Z,94.40
2018-09-20T23:19:53.709Z,94.70
2018-09-20T23:22:21.352Z,94.90
2018-09-20T23:24:48.939Z,94.80
2018-09-20T23:27:16.600Z,95.20
2018-09-20T23:29:44.202Z,95.10
2018-09-20T23:32:11.814Z,95.30
2018-09-20T23:34:39.438Z,95.30
2018-09-20T23:37:07.060Z,95.30
2018-09-20T23:39:34.641Z,95.60
2018-09-20T23:42:02.217Z,95.50
2018-09-20T23:44:29.844Z,95.80
2018-09-20T23:46:57.421Z,95.80
2018-09-20T23:49:25.203Z,95.70
2018-09-20T23:51:52.790Z,95.80
2018-09-20T23:54:20.492Z,96.00
2018-09-20T23:56:48.108Z,96.30
2018-09-20T23:59:15.730Z,96.50
